Time;durP1;ratioP1;P1;durP2;ratioP2;P2;SDS_P1;SDS_P2;PMS_P1;PMS_P2;Temp;Humidity;BMP_temperature;BMP_pressure;BME280_temperature;BME280_humidity;BME280_pressure;Samples;Min_cycle;Max_cycle;Signal;HPM_P1;HPM_P2
2022/09/10 00:00:58;;;;;;;1.40;1.30;;;24.70;41.50;;;;;;6183616;23;20210;-62
2022/09/10 00:03:24;;;;;;;1.10;1.00;;;24.70;41.50;;;;;;6189974;22;20431;-61
2022/09/10 00:05:50;;;;;;;1.00;0.90;;;24.70;41.50;;;;;;6175466;23;20408;-63
2022/09/10 00:08:17;;;;;;;1.23;0.80;;;24.70;41.50;;;;;;6170581;23;20421;-61
2022/09/10 00:10:46;;;;;;;1.10;1.00;;;24.70;41.50;;;;;;6192396;23;20462;-64
2022/09/10 00:13:14;;;;;;;0.93;0.90;;;24.70;41.50;;;;;;6202340;23;20431;-62
2022/09/10 00:15:51;;;;;;;0.80;0.80;;;24.70;41.50;;;;;;6201517;23;20443;-61
2022/09/10 00:18:19;;;;;;;1.83;1.00;;;24.70;41.40;;;;;;6186424;23;20415;-62
2022/09/10 00:20:49;;;;;;;0.93;0.93;;;24.70;41.50;;;;;;6185510;23;20420;-63
2022/09/10 00:23:18;;;;;;;0.80;0.80;;;24.70;41.40;;;;;;6172823;23;20424;-61
2022/09/10 00:25:45;;;;;;;0.93;0.83;;;24.70;41.40;;;;;;6173025;23;20726;-64
2022/09/10 00:28:11;;;;;;;0.90;0.90;;;24.70;41.40;;;;;;6173765;23;20486;-60
2022/09/10 00:30:41;;;;;;;0.80;0.80;;;24.70;41.50;;;;;;6174493;23;20416;-64
2022/09/10 00:33:07;;;;;;;5.13;1.00;;;24.70;41.40;;;;;;6170894;23;20425;-62
2022/09/10 00:35:33;;;;;;;0.80;0.80;;;24.70;41.40;;;;;;6174037;23;20775;-61
2022/09/10 00:37:59;;;;;;;0.90;0.90;;;24.70;41.50;;;;;;6175964;23;20420;-63
2022/09/10 00:40:25;;;;;;;1.00;0.90;;;24.70;41.40;;;;;;6172357;23;20516;-62
2022/09/10 00:42:51;;;;;;;0.90;0.90;;;24.70;41.50;;;;;;6173775;23;20524;-63
2022/09/10 00:45:27;;;;;;;0.90;0.90;;;24.70;41.50;;;;;;6178560;23;20195;-62
2022/09/10 00:47:57;;;;;;;0.73;0.73;;;24.70;41.50;;;;;;6192798;23;20670;-61
2022/09/10 00:50:26;;;;;;;0.90;0.80;;;24.70;41.50;;;;;;6190733;23;20458;-61
2022/09/10 00:52:55;;;;;;;0.97;0.77;;;24.70;41.50;;;;;;6188057;23;20727;-61
2022/09/10 00:55:22;;;;;;;0.80;0.80;;;24.70;41.40;;;;;;6201862;23;20890;-63
2022/09/10 00:57:52;;;;;;;0.90;0.90;;;24.70;41.50;;;;;;6205106;23;20434;-61
2022/09/10 01:00:17;;;;;;;1.00;0.90;;;24.70;41.60;;;;;;6200835;23;20927;-60
2022/09/10 01:02:44;;;;;;;1.43;1.00;;;24.70;41.50;;;;;;6200899;23;20454;-63
2022/09/10 01:05:11;;;;;;;1.00;0.80;;;24.70;41.50;;;;;;6205094;23;20194;-65
2022/09/10 01:07:37;;;;;;;0.80;0.80;;;24.70;41.50;;;;;;6202127;23;20523;-62
2022/09/10 01:10:11;;;;;;;2.47;0.90;;;24.70;41.50;;;;;;6196337;23;20502;-62
2022/09/10 01:12:58;;;;;;;0.70;0.70;;;24.70;41.50;;;;;;6193486;23;20419;-61
2022/09/10 01:15:34;;;;;;;1.10;1.00;;;24.70;41.50;;;;;;6185427;23;20451;-61
2022/09/10 01:18:26;;;;;;;1.20;0.70;;;24.70;41.50;;;;;;6201223;23;20910;-61
2022/09/10 01:21:18;;;;;;;1.30;1.20;;;24.70;41.50;;;;;;6200742;23;20416;-61
2022/09/10 01:24:04;;;;;;;0.90;0.80;;;24.70;41.50;;;;;;6196412;23;20425;-63
2022/09/10 01:26:57;;;;;;;1.00;0.80;;;24.70;41.50;;;;;;6187645;23;20484;-62
2022/09/10 01:29:53;;;;;;;0.73;0.73;;;24.70;41.50;;;;;;6198713;23;20458;-64
2022/09/10 01:32:42;;;;;;;0.80;0.80;;;24.60;41.40;;;;;;6205183;23;20415;-62
2022/09/10 01:35:17;;;;;;;0.93;0.80;;;24.60;41.40;;;;;;6187350;23;20501;-61
2022/09/10 01:37:52;;;;;;;1.47;0.80;;;24.60;41.40;;;;;;6187488;23;20498;-61
2022/09/10 01:40:18;;;;;;;0.90;0.80;;;24.70;41.50;;;;;;6187250;23;20443;-61
2022/09/10 01:42:45;;;;;;;1.00;0.87;;;24.70;41.50;;;;;;6187162;23;20491;-63
2022/09/10 01:45:13;;;;;;;0.70;0.70;;;24.60;41.40;;;;;;6195136;23;20948;-63
2022/09/10 01:48:05;;;;;;;0.90;0.90;;;24.70;41.60;;;;;;6197362;23;20431;-62
2022/09/10 01:50:46;;;;;;;1.50;0.90;;;24.60;41.40;;;;;;6197795;23;20427;-61
2022/09/10 01:53:14;;;;;;;0.90;0.90;;;24.70;41.50;;;;;;6172412;23;21053;-64
2022/09/10 01:55:51;;;;;;;0.80;0.70;;;24.60;41.50;;;;;;6180451;22;21941;-65
2022/09/10 01:58:32;;;;;;;0.93;0.80;;;24.60;41.40;;;;;;6171828;23;20424;-61
2022/09/10 02:01:10;;;;;;;0.93;0.93;;;24.60;41.40;;;;;;6170743;23;20472;-62
2022/09/10 02:03:38;;;;;;;0.90;0.80;;;24.60;41.50;;;;;;6196952;23;20427;-62
2022/09/10 02:06:08;;;;;;;1.20;0.90;;;24.60;41.50;;;;;;6203729;23;20558;-60
2022/09/10 02:08:37;;;;;;;0.80;0.80;;;24.60;41.40;;;;;;6194580;23;20412;-64
2022/09/10 02:11:05;;;;;;;2.00;0.90;;;24.60;41.40;;;;;;6171109;23;20428;-62
2022/09/10 02:13:33;;;;;;;1.37;0.80;;;24.60;41.40;;;;;;6172328;23;20443;-61
2022/09/10 02:15:59;;;;;;;1.10;1.00;;;24.60;41.40;;;;;;6173837;23;20443;-62
2022/09/10 02:18:25;;;;;;;0.87;0.87;;;24.60;41.40;;;;;;6171572;23;20482;-63
2022/09/10 02:20:54;;;;;;;1.30;1.17;;;24.60;41.40;;;;;;6175987;23;20904;-62
2022/09/10 02:23:27;;;;;;;0.87;0.87;;;24.60;41.40;;;;;;6173474;23;20416;-61
2022/09/10 02:25:53;;;;;;;1.90;0.90;;;24.60;41.40;;;;;;6173012;23;20412;-63
2022/09/10 02:28:19;;;;;;;2.60;0.73;;;24.60;41.50;;;;;;6168501;23;20736;-61
2022/09/10 02:30:47;;;;;;;0.93;0.90;;;24.60;41.40;;;;;;6168745;23;20270;-62
2022/09/10 02:33:15;;;;;;;0.90;0.90;;;24.60;41.40;;;;;;6172117;23;20424;-61
2022/09/10 02:35:42;;;;;;;0.93;0.80;;;24.60;41.50;;;;;;6168076;23;20773;-61
2022/09/10 02:38:07;;;;;;;1.10;1.00;;;24.60;41.30;;;;;;6174224;23;20861;-61
2022/09/10 02:40:33;;;;;;;1.00;0.90;;;24.60;41.40;;;;;;6175120;23;20412;-62
2022/09/10 02:42:59;;;;;;;0.97;0.87;;;24.60;41.30;;;;;;6174088;23;20710;-62
2022/09/10 02:45:25;;;;;;;0.90;0.73;;;24.60;41.40;;;;;;6177661;23;20190;-63
2022/09/10 02:47:51;;;;;;;0.80;0.70;;;24.60;41.40;;;;;;6172755;23;20198;-61
2022/09/10 02:50:17;;;;;;;0.77;0.73;;;24.60;41.30;;;;;;6172795;23;20205;-61
2022/09/10 02:52:44;;;;;;;0.70;0.60;;;24.60;41.30;;;;;;6152986;23;20604;-61
2022/09/10 02:55:11;;;;;;;1.00;0.90;;;24.60;41.30;;;;;;6200803;23;20922;-61
2022/09/10 02:57:38;;;;;;;1.00;0.80;;;24.60;41.30;;;;;;6200203;23;20415;-62
2022/09/10 03:00:05;;;;;;;1.20;1.10;;;24.60;41.30;;;;;;6200306;23;20501;-65
2022/09/10 03:02:31;;;;;;;0.90;0.80;;;24.60;41.30;;;;;;6193828;23;20442;-65
2022/09/10 03:04:56;;;;;;;0.90;0.90;;;24.60;41.30;;;;;;6202933;23;20728;-61
2022/09/10 03:07:22;;;;;;;0.80;0.80;;;24.60;41.30;;;;;;6202842;23;20266;-61
2022/09/10 03:09:48;;;;;;;0.90;0.80;;;24.60;41.30;;;;;;6204052;23;20193;-61
2022/09/10 03:12:15;;;;;;;0.90;0.80;;;24.60;41.30;;;;;;6202993;23;20201;-62
2022/09/10 03:14:43;;;;;;;0.70;0.70;;;24.60;41.30;;;;;;6206567;23;20428;-61
2022/09/10 03:17:09;;;;;;;1.03;0.90;;;24.60;41.30;;;;;;6206965;23;20411;-63
2022/09/10 03:19:35;;;;;;;1.30;0.90;;;24.60;41.30;;;;;;6204534;23;20488;-61
2022/09/10 03:22:01;;;;;;;0.93;0.80;;;24.60;41.20;;;;;;6204317;23;20637;-60
2022/09/10 03:24:27;;;;;;;0.70;0.70;;;24.60;41.30;;;;;;6205607;23;20452;-63
2022/09/10 03:26:53;;;;;;;1.10;0.90;;;24.60;41.30;;;;;;6201595;23;20193;-62
2022/09/10 03:29:19;;;;;;;0.80;0.80;;;24.60;41.30;;;;;;6199672;23;20200;-61
2022/09/10 03:31:45;;;;;;;1.03;0.80;;;24.60;41.40;;;;;;6201889;23;20390;-62
2022/09/10 03:34:11;;;;;;;1.40;1.10;;;24.60;41.20;;;;;;6203380;23;20273;-61
2022/09/10 03:36:37;;;;;;;1.00;0.90;;;24.60;41.30;;;;;;6205718;23;20474;-62
2022/09/10 03:39:02;;;;;;;0.80;0.77;;;24.60;41.30;;;;;;6204223;23;20420;-62
2022/09/10 03:41:28;;;;;;;1.20;1.00;;;24.60;41.30;;;;;;6205576;23;20212;-63
2022/09/10 03:43:54;;;;;;;1.07;0.87;;;24.60;41.30;;;;;;6208938;23;20625;-61
2022/09/10 03:46:21;;;;;;;1.00;0.90;;;24.60;41.30;;;;;;6203183;23;20194;-61
2022/09/10 03:48:47;;;;;;;1.03;0.80;;;24.60;41.30;;;;;;6205667;23;20859;-62
2022/09/10 03:51:12;;;;;;;1.33;0.87;;;24.60;41.30;;;;;;6206230;23;20427;-61
2022/09/10 03:53:39;;;;;;;0.80;0.80;;;24.60;41.30;;;;;;6205263;23;20194;-62
2022/09/10 03:56:05;;;;;;;0.90;0.80;;;24.60;41.30;;;;;;6207290;23;20201;-61
2022/09/10 03:58:31;;;;;;;1.10;1.00;;;24.60;41.30;;;;;;6198250;23;20418;-62
2022/09/10 04:00:57;;;;;;;1.30;0.90;;;24.60;41.30;;;;;;6203069;23;20236;-60
2022/09/10 04:03:22;;;;;;;1.10;0.90;;;24.60;41.30;;;;;;6206402;23;20194;-60
2022/09/10 04:05:49;;;;;;;1.10;1.00;;;24.60;41.30;;;;;;6175645;23;20471;-61
2022/09/10 04:08:14;;;;;;;1.00;0.80;;;24.60;41.30;;;;;;6181769;23;20199;-63
2022/09/10 04:10:41;;;;;;;1.10;1.00;;;24.60;41.30;;;;;;6197174;23;20418;-63
2022/09/10 04:13:08;;;;;;;0.80;0.80;;;24.60;41.30;;;;;;6202131;23;20198;-61
2022/09/10 04:15:33;;;;;;;0.93;0.90;;;24.60;41.30;;;;;;6189337;22;20436;-61
2022/09/10 04:17:59;;;;;;;1.10;1.00;;;24.60;41.30;;;;;;6171896;23;20432;-61
2022/09/10 04:20:25;;;;;;;1.00;0.90;;;24.60;41.30;;;;;;6203714;23;20201;-64
2022/09/10 04:22:52;;;;;;;1.00;0.90;;;24.60;41.30;;;;;;6208622;23;20208;-62
2022/09/10 04:25:18;;;;;;;1.00;0.90;;;24.60;41.30;;;;;;6202548;23;20461;-63
2022/09/10 04:27:45;;;;;;;1.00;0.90;;;24.60;41.40;;;;;;6205778;23;20411;-62
2022/09/10 04:30:11;;;;;;;1.20;0.93;;;24.60;41.30;;;;;;6202462;23;20490;-61
2022/09/10 04:32:37;;;;;;;0.80;0.80;;;24.60;41.30;;;;;;6198070;23;20424;-61
2022/09/10 04:35:03;;;;;;;1.10;1.00;;;24.60;41.40;;;;;;6207718;23;20493;-62
2022/09/10 04:37:30;;;;;;;1.50;1.10;;;24.60;41.30;;;;;;6208505;23;20330;-61
2022/09/10 04:39:56;;;;;;;0.93;0.90;;;24.60;41.30;;;;;;6200852;23;20439;-63
2022/09/10 04:42:22;;;;;;;1.10;1.00;;;24.60;41.30;;;;;;6211331;23;20430;-60
2022/09/10 04:44:48;;;;;;;1.07;0.93;;;24.60;41.30;;;;;;6202856;23;20412;-61
2022/09/10 04:47:15;;;;;;;1.20;1.07;;;24.60;41.30;;;;;;6206574;23;20190;-62
2022/09/10 04:49:41;;;;;;;1.50;1.00;;;24.60;41.30;;;;;;6202296;23;21005;-61
2022/09/10 04:52:06;;;;;;;0.97;0.87;;;24.50;41.30;;;;;;6203334;23;20863;-60
2022/09/10 04:54:36;;;;;;;1.07;0.97;;;24.60;41.30;;;;;;6198998;23;20411;-63
2022/09/10 04:57:03;;;;;;;0.83;0.83;;;24.60;41.30;;;;;;6200602;23;20214;-61
2022/09/10 04:59:29;;;;;;;1.30;1.00;;;24.60;41.30;;;;;;6196958;23;20424;-62
2022/09/10 05:01:55;;;;;;;1.10;1.00;;;24.60;41.30;;;;;;6207978;23;20419;-63
2022/09/10 05:04:21;;;;;;;1.07;0.93;;;24.60;41.30;;;;;;6209669;23;20189;-61
2022/09/10 05:06:49;;;;;;;1.30;1.00;;;24.60;41.30;;;;;;6197938;23;20435;-61
2022/09/10 05:09:15;;;;;;;1.20;1.10;;;24.60;41.30;;;;;;6197816;23;20404;-61
2022/09/10 05:11:41;;;;;;;1.00;0.90;;;24.60;41.30;;;;;;6202126;23;20506;-61
2022/09/10 05:14:07;;;;;;;1.03;0.93;;;24.60;41.30;;;;;;6208147;23;20415;-61
2022/09/10 05:16:32;;;;;;;1.00;0.90;;;24.60;41.30;;;;;;6207727;23;20411;-61
2022/09/10 05:18:58;;;;;;;1.20;1.10;;;24.60;41.30;;;;;;6209066;23;20189;-61
2022/09/10 05:21:23;;;;;;;1.10;1.00;;;24.60;41.30;;;;;;6208141;23;20272;-61
2022/09/10 05:23:49;;;;;;;1.10;0.90;;;24.60;41.20;;;;;;6207077;23;20257;-63
2022/09/10 05:26:14;;;;;;;1.33;1.23;;;24.60;41.30;;;;;;6205192;23;20280;-60
2022/09/10 05:28:41;;;;;;;1.03;0.93;;;24.60;41.30;;;;;;6207675;23;20212;-63
2022/09/10 05:31:08;;;;;;;1.20;1.10;;;24.60;41.20;;;;;;6206901;23;20186;-61
2022/09/10 05:33:34;;;;;;;1.20;1.10;;;24.60;41.30;;;;;;6206597;23;20446;-62
2022/09/10 05:36:00;;;;;;;0.90;0.87;;;24.60;41.30;;;;;;6205861;23;20415;-64
2022/09/10 05:38:26;;;;;;;1.00;0.90;;;24.60;41.30;;;;;;6207545;23;20742;-62
2022/09/10 05:40:52;;;;;;;1.40;1.30;;;24.60;41.30;;;;;;6206668;23;20196;-63
2022/09/10 05:43:18;;;;;;;1.20;0.93;;;24.60;42.00;;;;;;6201999;23;20213;-62
2022/09/10 05:45:44;;;;;;;1.57;1.47;;;24.60;41.30;;;;;;6202004;23;20945;-64
2022/09/10 05:48:09;;;;;;;1.50;1.00;;;24.60;41.30;;;;;;6202390;23;20186;-61
2022/09/10 05:50:37;;;;;;;1.53;1.00;;;24.60;41.30;;;;;;6203166;23;20192;-61
2022/09/10 05:53:02;;;;;;;1.10;1.00;;;24.60;41.30;;;;;;6202236;23;20190;-61
2022/09/10 05:55:30;;;;;;;1.10;1.00;;;24.60;41.30;;;;;;6205720;23;20411;-62
2022/09/10 05:57:56;;;;;;;1.83;1.00;;;24.60;41.30;;;;;;6207613;23;20617;-62
2022/09/10 06:00:23;;;;;;;1.27;1.17;;;24.60;41.30;;;;;;6205870;23;20454;-61
2022/09/10 06:02:49;;;;;;;1.00;0.90;;;24.60;41.20;;;;;;6206234;23;20423;-61
2022/09/10 06:05:15;;;;;;;1.20;1.00;;;24.60;41.20;;;;;;6206579;23;20465;-61
2022/09/10 06:07:41;;;;;;;1.00;0.90;;;24.60;41.30;;;;;;6207280;23;20419;-60
2022/09/10 06:10:06;;;;;;;1.00;0.90;;;24.60;41.20;;;;;;6205400;23;20197;-62
2022/09/10 06:12:33;;;;;;;1.20;1.10;;;24.60;41.20;;;;;;6205520;23;20229;-61
2022/09/10 06:14:58;;;;;;;1.50;0.90;;;24.70;41.30;;;;;;6204252;23;20221;-63
2022/09/10 06:17:24;;;;;;;1.20;1.10;;;24.60;41.20;;;;;;6208563;23;20399;-65
2022/09/10 06:19:50;;;;;;;1.30;1.03;;;24.60;41.30;;;;;;6203092;23;20198;-61
2022/09/10 06:22:16;;;;;;;1.10;1.00;;;24.60;41.30;;;;;;6200928;23;20221;-61
2022/09/10 06:24:42;;;;;;;1.30;1.20;;;24.60;41.20;;;;;;6205937;23;20407;-60
2022/09/10 06:27:08;;;;;;;1.37;1.27;;;24.60;41.30;;;;;;6206657;23;20263;-61
2022/09/10 06:29:35;;;;;;;1.10;1.00;;;24.60;41.20;;;;;;6204808;23;20901;-62
2022/09/10 06:32:01;;;;;;;1.20;1.10;;;24.60;41.30;;;;;;6207552;23;20905;-62
2022/09/10 06:34:27;;;;;;;1.40;1.07;;;24.60;41.30;;;;;;6205552;23;20415;-62
2022/09/10 06:36:52;;;;;;;1.40;1.10;;;24.60;41.30;;;;;;6205535;23;20243;-62
2022/09/10 06:39:18;;;;;;;1.20;1.10;;;24.60;41.20;;;;;;6205806;23;20280;-61
2022/09/10 06:41:44;;;;;;;1.30;1.20;;;24.60;41.30;;;;;;6204756;23;20285;-62
2022/09/10 06:44:09;;;;;;;1.20;1.10;;;24.60;41.30;;;;;;6205470;23;20233;-61
2022/09/10 06:46:35;;;;;;;1.43;1.20;;;24.60;41.30;;;;;;6207084;23;20415;-60
2022/09/10 06:49:03;;;;;;;6.50;2.10;;;24.60;41.30;;;;;;6206093;23;20193;-61
2022/09/10 06:51:28;;;;;;;1.37;1.27;;;24.60;41.30;;;;;;6205876;23;20252;-61
2022/09/10 06:53:55;;;;;;;3.63;1.10;;;24.60;41.30;;;;;;6207387;23;20415;-61
2022/09/10 06:56:21;;;;;;;1.70;1.40;;;24.60;41.30;;;;;;6205325;23;20186;-61
2022/09/10 06:58:46;;;;;;;1.23;1.13;;;24.60;41.30;;;;;;6205207;23;20420;-63
2022/09/10 07:01:16;;;;;;;1.50;1.40;;;24.60;41.30;;;;;;6205346;23;20236;-61
2022/09/10 07:03:43;;;;;;;1.33;1.10;;;24.60;41.30;;;;;;6205470;23;20186;-62
2022/09/10 07:06:12;;;;;;;1.37;1.27;;;24.60;41.30;;;;;;6207517;23;20420;-62
2022/09/10 07:08:38;;;;;;;2.10;1.27;;;24.60;41.30;;;;;;6204501;23;20422;-60
2022/09/10 07:11:06;;;;;;;1.40;1.30;;;24.60;41.30;;;;;;6205365;23;20415;-61
2022/09/10 07:13:33;;;;;;;5.13;1.47;;;24.60;41.30;;;;;;6205497;23;20499;-59
2022/09/10 07:15:59;;;;;;;1.30;1.07;;;24.60;41.30;;;;;;6208142;23;20437;-60
2022/09/10 07:18:26;;;;;;;2.03;1.13;;;24.60;41.30;;;;;;6208890;23;20411;-61
2022/09/10 07:20:51;;;;;;;1.23;1.13;;;24.60;41.30;;;;;;6207329;23;20617;-62
2022/09/10 07:23:19;;;;;;;1.67;1.40;;;24.60;41.30;;;;;;6206044;23;20422;-64
2022/09/10 07:25:44;;;;;;;3.03;1.33;;;24.60;41.30;;;;;;6206854;23;20264;-62
2022/09/10 07:28:16;;;;;;;1.50;1.20;;;24.60;41.40;;;;;;6206489;23;20650;-61
2022/09/10 07:30:43;;;;;;;1.13;1.03;;;24.60;41.30;;;;;;6207142;23;20197;-64
2022/09/10 07:33:12;;;;;;;1.87;1.10;;;24.60;41.40;;;;;;6207716;23;20870;-61
2022/09/10 07:35:38;;;;;;;1.50;1.40;;;24.60;41.40;;;;;;6209050;23;20960;-60
2022/09/10 07:38:05;;;;;;;1.40;1.30;;;24.60;41.40;;;;;;6208797;23;20929;-61
2022/09/10 07:40:31;;;;;;;1.30;1.10;;;24.60;41.40;;;;;;6208286;23;20458;-65
2022/09/10 07:42:58;;;;;;;1.67;1.30;;;24.60;41.50;;;;;;6205520;23;20423;-61
2022/09/10 07:45:24;;;;;;;1.83;1.40;;;24.60;41.50;;;;;;6207390;23;20565;-59
2022/09/10 07:47:50;;;;;;;2.07;1.33;;;24.60;41.50;;;;;;6205995;23;20794;-61
2022/09/10 07:50:16;;;;;;;1.23;1.13;;;24.60;41.50;;;;;;6173717;23;20960;-59
2022/09/10 07:52:41;;;;;;;1.57;1.33;;;24.60;41.50;;;;;;6174773;23;20186;-61
2022/09/10 07:55:07;;;;;;;1.50;1.40;;;24.60;41.50;;;;;;6189195;23;20195;-59
2022/09/10 07:57:36;;;;;;;3.67;1.30;;;24.60;41.50;;;;;;6193885;23;20229;-61
2022/09/10 08:00:03;;;;;;;2.80;1.40;;;24.60;41.60;;;;;;6203286;23;20442;-61
2022/09/10 08:02:29;;;;;;;1.67;1.50;;;24.60;41.50;;;;;;6204531;23;20424;-62
2022/09/10 08:04:54;;;;;;;2.37;1.30;;;24.60;41.60;;;;;;6202004;23;21113;-63
2022/09/10 08:07:20;;;;;;;3.20;1.50;;;24.60;41.60;;;;;;6203406;23;20194;-62
2022/09/10 08:09:45;;;;;;;1.60;1.50;;;24.60;41.60;;;;;;6205880;23;20261;-62
2022/09/10 08:12:11;;;;;;;1.40;1.30;;;24.60;41.60;;;;;;6205798;23;20643;-60
2022/09/10 08:14:36;;;;;;;1.20;1.10;;;24.60;41.60;;;;;;6206948;23;20641;-61
2022/09/10 08:17:03;;;;;;;1.43;1.33;;;24.60;41.60;;;;;;6202909;23;20201;-64
2022/09/10 08:19:28;;;;;;;1.63;1.37;;;24.60;41.60;;;;;;6205293;23;20194;-61
2022/09/10 08:21:55;;;;;;;1.30;1.20;;;24.60;41.70;;;;;;6208527;23;20511;-61
2022/09/10 08:24:21;;;;;;;2.37;1.50;;;24.60;41.60;;;;;;6188073;23;20202;-62
2022/09/10 08:26:47;;;;;;;2.47;1.20;;;24.60;41.60;;;;;;6174184;23;20722;-62
2022/09/10 08:29:12;;;;;;;2.00;1.50;;;24.60;41.60;;;;;;6189722;23;20481;-61
2022/09/10 08:31:38;;;;;;;3.53;1.30;;;24.60;41.70;;;;;;6204833;23;20602;-60
2022/09/10 08:34:04;;;;;;;1.40;1.30;;;24.60;41.70;;;;;;6201333;23;20571;-59
2022/09/10 08:36:30;;;;;;;1.30;1.20;;;24.60;41.70;;;;;;6207825;23;20247;-58
2022/09/10 08:38:55;;;;;;;1.77;1.33;;;24.60;41.80;;;;;;6200483;23;20610;-61
2022/09/10 08:41:38;;;;;;;1.47;1.30;;;24.60;41.70;;;;;;6204456;23;20313;-60
2022/09/10 08:44:39;;;;;;;1.43;1.10;;;24.60;41.60;;;;;;6204567;23;20216;-60
2022/09/10 08:47:32;;;;;;;1.40;1.23;;;24.60;41.70;;;;;;6197885;23;20452;-59
2022/09/10 08:50:10;;;;;;;6.87;1.40;;;24.60;41.70;;;;;;6203990;23;20415;-60
2022/09/10 08:52:42;;;;;;;1.40;1.30;;;24.60;41.70;;;;;;6206033;23;20416;-59
2022/09/10 08:55:18;;;;;;;1.50;1.40;;;24.60;41.70;;;;;;6205228;23;20439;-59
2022/09/10 08:58:03;;;;;;;3.17;1.40;;;24.60;41.80;;;;;;6204879;23;20419;-59
2022/09/10 09:00:33;;;;;;;1.97;1.50;;;24.50;41.60;;;;;;6186432;23;20412;-59
2022/09/10 09:03:05;;;;;;;2.87;2.10;;;24.60;41.80;;;;;;6199710;23;20419;-60
2022/09/10 09:05:46;;;;;;;1.40;1.30;;;24.60;41.70;;;;;;6202762;23;20408;-59
2022/09/10 09:08:15;;;;;;;1.50;1.40;;;24.60;41.70;;;;;;6205078;23;20506;-59
2022/09/10 09:10:49;;;;;;;1.77;1.27;;;24.60;41.80;;;;;;6205127;23;20490;-59
2022/09/10 09:13:26;;;;;;;1.30;1.20;;;24.50;41.70;;;;;;6206757;23;20419;-59
2022/09/10 09:16:25;;;;;;;1.30;1.20;;;24.60;41.80;;;;;;6203968;23;20447;-59
2022/09/10 09:19:02;;;;;;;2.10;1.27;;;24.60;41.80;;;;;;6198476;23;20415;-59
2022/09/10 09:21:40;;;;;;;1.20;1.10;;;24.60;41.80;;;;;;6194328;23;20819;-58
2022/09/10 09:24:21;;;;;;;1.30;1.20;;;24.50;41.70;;;;;;6205653;23;20414;-60
2022/09/10 09:26:46;;;;;;;1.33;1.23;;;24.50;41.70;;;;;;6183885;23;20462;-60
2022/09/10 09:29:20;;;;;;;1.40;1.30;;;24.50;41.70;;;;;;6174781;23;20421;-59
2022/09/10 09:31:50;;;;;;;1.50;1.40;;;24.50;41.60;;;;;;6170770;23;20619;-60
2022/09/10 09:34:38;;;;;;;2.13;1.40;;;24.50;41.70;;;;;;6195248;23;20447;-59
2022/09/10 09:37:33;;;;;;;1.80;1.30;;;24.50;41.60;;;;;;6202962;23;20424;-61
2022/09/10 09:40:11;;;;;;;1.40;1.30;;;24.50;41.60;;;;;;6205337;23;20408;-60
2022/09/10 09:42:55;;;;;;;1.73;1.33;;;24.60;41.80;;;;;;6205211;23;20739;-60
2022/09/10 09:45:42;;;;;;;1.37;1.27;;;24.50;41.70;;;;;;6196178;23;20420;-59
2022/09/10 09:48:12;;;;;;;1.50;1.40;;;24.60;41.80;;;;;;6181104;23;21004;-62
2022/09/10 09:50:40;;;;;;;1.40;1.30;;;24.50;41.70;;;;;;6199272;23;20746;-63
2022/09/10 09:53:08;;;;;;;1.60;1.50;;;24.50;41.70;;;;;;6202720;23;20422;-61
2022/09/10 09:55:37;;;;;;;1.47;1.37;;;24.50;41.70;;;;;;6205264;23;20448;-60
2022/09/10 09:58:21;;;;;;;1.40;1.30;;;24.50;41.70;;;;;;6203313;23;20422;-62
2022/09/10 10:01:09;;;;;;;1.40;1.30;;;24.50;41.70;;;;;;6197386;23;20411;-61
2022/09/10 10:03:53;;;;;;;2.80;1.50;;;24.50;41.70;;;;;;6194155;23;20436;-61
2022/09/10 10:06:42;;;;;;;1.33;1.23;;;24.50;41.70;;;;;;6175229;23;20433;-60
2022/09/10 10:09:20;;;;;;;2.47;1.40;;;24.50;41.70;;;;;;6195548;23;20775;-60
2022/09/10 10:11:56;;;;;;;1.50;1.40;;;24.50;41.70;;;;;;6184131;23;20411;-60
2022/09/10 10:14:35;;;;;;;1.40;1.30;;;24.50;41.70;;;;;;6202234;23;20716;-60
2022/09/10 10:17:01;;;;;;;3.50;1.87;;;24.50;41.70;;;;;;6204598;23;20450;-61
2022/09/10 10:19:32;;;;;;;1.40;1.30;;;24.50;41.70;;;;;;6189316;23;20408;-62
2022/09/10 10:22:13;;;;;;;2.30;1.70;;;24.50;41.70;;;;;;6178753;23;20467;-60
2022/09/10 10:24:40;;;;;;;1.50;1.40;;;24.50;41.70;;;;;;6203340;23;20411;-61
2022/09/10 10:27:15;;;;;;;2.07;1.67;;;24.50;41.70;;;;;;6203775;23;20428;-60
2022/09/10 10:29:40;;;;;;;1.57;1.47;;;24.50;41.70;;;;;;6186291;23;20470;-64
2022/09/10 10:32:15;;;;;;;2.23;1.43;;;24.50;41.80;;;;;;6181365;23;20416;-61
2022/09/10 10:34:52;;;;;;;1.40;1.30;;;24.50;41.70;;;;;;6202796;23;20193;-59
2022/09/10 10:37:32;;;;;;;1.60;1.50;;;24.50;41.80;;;;;;6185783;23;20430;-61
2022/09/10 10:40:13;;;;;;;2.40;1.50;;;24.50;41.80;;;;;;6175825;22;20415;-62
2022/09/10 10:43:01;;;;;;;3.33;1.50;;;24.50;41.70;;;;;;6175044;23;20490;-62
2022/09/10 10:45:54;;;;;;;1.80;1.70;;;24.50;41.80;;;;;;6107065;22;20825;-63
2022/09/10 10:48:31;;;;;;;2.07;1.30;;;24.50;41.80;;;;;;6186201;23;20906;-61
2022/09/10 10:51:08;;;;;;;2.93;1.53;;;24.50;41.80;;;;;;6179305;23;20469;-63
2022/09/10 10:54:05;;;;;;;1.70;1.60;;;24.50;41.80;;;;;;6204078;23;20856;-60
2022/09/10 10:56:36;;;;;;;1.40;1.30;;;24.50;41.80;;;;;;6198003;23;20442;-59
2022/09/10 10:59:15;;;;;;;1.90;1.50;;;24.50;41.80;;;;;;6204591;23;20419;-61
2022/09/10 11:01:47;;;;;;;2.50;1.53;;;24.50;41.80;;;;;;6198438;23;20530;-61
2022/09/10 11:04:40;;;;;;;1.67;1.50;;;24.50;41.90;;;;;;6197380;23;20502;-61
2022/09/10 11:07:14;;;;;;;1.57;1.47;;;24.50;41.80;;;;;;6192906;23;20408;-59
2022/09/10 11:09:49;;;;;;;2.90;1.50;;;24.50;41.90;;;;;;6205792;23;20412;-61
2022/09/10 11:12:30;;;;;;;1.97;1.70;;;24.50;41.90;;;;;;6187396;23;20414;-60
2022/09/10 11:15:27;;;;;;;1.67;1.50;;;24.50;41.80;;;;;;6206476;23;20817;-60
2022/09/10 11:18:17;;;;;;;2.47;1.37;;;24.60;42.00;;;;;;6205401;23;20419;-60
2022/09/10 11:21:02;;;;;;;1.40;1.30;;;24.50;42.00;;;;;;6174364;23;20447;-61
2022/09/10 11:23:47;;;;;;;1.80;1.70;;;24.50;41.90;;;;;;6175801;23;21237;-59
2022/09/10 11:26:17;;;;;;;1.53;1.43;;;24.50;42.00;;;;;;6204326;23;21102;-60
2022/09/10 11:28:53;;;;;;;1.50;1.40;;;24.50;42.00;;;;;;6206552;23;20798;-60
2022/09/10 11:31:46;;;;;;;1.80;1.70;;;24.50;42.00;;;;;;6206702;23;20458;-61
2022/09/10 11:34:26;;;;;;;1.80;1.70;;;24.50;42.00;;;;;;6173473;23;20775;-61
2022/09/10 11:37:06;;;;;;;1.73;1.63;;;24.50;42.00;;;;;;6174407;23;20938;-59
2022/09/10 11:39:37;;;;;;;2.90;1.70;;;24.50;42.00;;;;;;6187795;23;21294;-60
2022/09/10 11:42:15;;;;;;;2.13;2.03;;;24.50;42.10;;;;;;6175193;23;20423;-59
2022/09/10 11:44:53;;;;;;;7.93;1.70;;;24.50;42.00;;;;;;6174664;23;20455;-60
2022/09/10 11:47:28;;;;;;;2.13;1.87;;;24.50;42.00;;;;;;6197476;23;20449;-62
2022/09/10 11:50:00;;;;;;;1.90;1.80;;;24.60;42.10;;;;;;6172943;23;20426;-62
2022/09/10 11:52:28;;;;;;;2.60;1.70;;;24.50;42.10;;;;;;6188201;23;20420;-58
2022/09/10 11:54:55;;;;;;;1.87;1.77;;;24.50;42.10;;;;;;6198202;23;20461;-59
2022/09/10 11:57:33;;;;;;;3.37;1.67;;;24.50;42.10;;;;;;6205616;23;20442;-59
2022/09/10 12:00:07;;;;;;;3.23;2.30;;;24.50;42.10;;;;;;6176174;23;20911;-60
2022/09/10 12:03:10;;;;;;;1.60;1.50;;;24.50;42.10;;;;;;6205365;23;20457;-59
2022/09/10 12:05:53;;;;;;;1.87;1.77;;;24.50;42.10;;;;;;6200349;23;20411;-58
2022/09/10 12:08:39;;;;;;;1.70;1.60;;;24.50;42.10;;;;;;6199853;23;20419;-59
2022/09/10 12:11:04;;;;;;;1.70;1.60;;;24.50;42.20;;;;;;6195043;23;20412;-62
2022/09/10 12:13:33;;;;;;;2.80;1.83;;;24.50;42.20;;;;;;6174801;23;20428;-58
2022/09/10 12:16:04;;;;;;;1.80;1.70;;;24.50;42.20;;;;;;6184769;23;20207;-58
2022/09/10 12:18:40;;;;;;;2.97;2.60;;;24.50;42.20;;;;;;6202802;23;20742;-59
2022/09/10 12:21:40;;;;;;;2.00;1.80;;;24.50;42.20;;;;;;6202869;23;20530;-58
2022/09/10 12:24:32;;;;;;;3.73;2.20;;;24.50;42.20;;;;;;6194088;23;20547;-58
2022/09/10 12:26:59;;;;;;;2.73;2.53;;;24.50;42.20;;;;;;6179473;23;20918;-58
2022/09/10 12:29:32;;;;;;;1.70;1.60;;;24.50;42.20;;;;;;6202324;23;20408;-59
2022/09/10 12:32:08;;;;;;;2.10;1.90;;;24.50;42.10;;;;;;6202359;23;20736;-60
2022/09/10 12:34:35;;;;;;;5.33;2.00;;;24.50;42.20;;;;;;6204928;23;20756;-59
2022/09/10 12:37:01;;;;;;;2.00;1.90;;;24.50;42.20;;;;;;6201332;23;21815;-59
2022/09/10 12:39:28;;;;;;;2.10;2.00;;;24.50;42.20;;;;;;6202703;23;20416;-60
2022/09/10 12:41:57;;;;;;;2.00;1.90;;;24.50;42.20;;;;;;6207379;23;20213;-58
2022/09/10 12:44:35;;;;;;;2.00;1.90;;;24.50;42.20;;;;;;6202217;23;20420;-61
2022/09/10 12:47:15;;;;;;;4.33;2.00;;;24.50;42.20;;;;;;6203725;23;20414;-61
2022/09/10 12:49:50;;;;;;;1.97;1.87;;;24.50;42.10;;;;;;6170851;23;20826;-59
2022/09/10 12:52:52;;;;;;;2.20;2.00;;;24.50;42.20;;;;;;6178724;23;21091;-59
2022/09/10 12:55:36;;;;;;;2.10;1.90;;;24.50;42.20;;;;;;6172993;23;20714;-58
2022/09/10 12:58:46;;;;;;;4.33;2.50;;;24.50;42.20;;;;;;6175431;23;20425;-59
2022/09/10 13:01:23;;;;;;;3.10;2.30;;;24.50;42.20;;;;;;6198766;23;20411;-61
2022/09/10 13:03:54;;;;;;;2.20;2.00;;;24.50;42.30;;;;;;6203532;23;20419;-61
2022/09/10 13:06:37;;;;;;;2.10;1.90;;;24.50;42.40;;;;;;6204609;23;20415;-59
2022/09/10 13:09:15;;;;;;;2.70;2.20;;;24.50;42.30;;;;;;6205717;23;20439;-58